createdAt,value
2023-05-05T00:00:37.164Z,101042.94
2023-05-05T00:03:06.371Z,101045.59
2023-05-05T00:05:35.002Z,101042.75
2023-05-05T00:08:06.817Z,101042.47
2023-05-05T00:10:35.796Z,101049.47
2023-05-05T00:13:07.088Z,101047.25
2023-05-05T00:15:36.504Z,101054.13
2023-05-05T00:18:05.732Z,101044.44
2023-05-05T00:23:03.638Z,101034.84
2023-05-05T00:25:37.153Z,101037.44
2023-05-05T00:28:07.111Z,101047.06
2023-05-05T00:30:36.327Z,101033.06
2023-05-05T00:33:06.342Z,101026.66
2023-05-05T00:35:36.330Z,101030.88
2023-05-05T00:38:06.942Z,101039.78
2023-05-05T00:40:38.230Z,101038.00
2023-05-05T00:43:08.729Z,101033.66
2023-05-05T00:45:41.926Z,101038.66
2023-05-05T00:48:10.842Z,101041.13
2023-05-05T00:50:40.193Z,101039.91
2023-05-05T00:53:09.339Z,101036.97
2023-05-05T00:55:41.833Z,101047.28
2023-05-05T00:58:11.254Z,101040.09
2023-05-05T01:00:43.313Z,101043.13
2023-05-05T01:03:15.586Z,101031.34
2023-05-05T01:05:57.549Z,101033.50
2023-05-05T01:08:44.904Z,101035.41
2023-05-05T01:11:27.424Z,101047.13
2023-05-05T01:14:16.322Z,101048.06
2023-05-05T01:16:57.722Z,101052.16
2023-05-05T01:20:08.297Z,101047.19
2023-05-05T01:22:43.133Z,101044.38
2023-05-05T01:26:07.614Z,101052.97
2023-05-05T01:29:09.429Z,101044.38
2023-05-05T01:32:03.304Z,101046.19
2023-05-05T01:34:41.244Z,101041.47
2023-05-05T01:37:15.208Z,101047.06
2023-05-05T01:39:46.144Z,101054.22
2023-05-05T01:42:15.460Z,101051.03
2023-05-05T01:44:46.642Z,101056.88
2023-05-05T01:47:20.377Z,101057.47
2023-05-05T01:49:52.155Z,101062.19
2023-05-05T01:52:25.226Z,101056.28
2023-05-05T01:54:57.519Z,101056.06
2023-05-05T01:57:31.739Z,101051.31
2023-05-05T02:00:07.282Z,101055.06
2023-05-05T02:02:40.359Z,101047.94
2023-05-05T02:05:12.100Z,101060.38
2023-05-05T02:07:41.518Z,101060.63
2023-05-05T02:10:14.771Z,101080.25
2023-05-05T02:12:46.577Z,101073.56
2023-05-05T02:15:17.776Z,101080.06
2023-05-05T02:17:49.687Z,101085.63
2023-05-05T02:20:21.491Z,101090.13
2023-05-05T02:22:51.005Z,101074.66
2023-05-05T02:25:20.001Z,101083.97
2023-05-05T02:27:51.582Z,101085.13
2023-05-05T02:30:22.435Z,101094.38
2023-05-05T02:33:01.836Z,101090.47
2023-05-05T02:35:38.108Z,101090.56
2023-05-05T02:38:17.450Z,101100.53
2023-05-05T02:40:49.815Z,101095.44
2023-05-05T02:43:23.531Z,101098.22
2023-05-05T02:45:52.996Z,101106.88
2023-05-05T02:48:22.915Z,101106.38
2023-05-05T02:50:51.865Z,101112.81
2023-05-05T02:53:26.007Z,101106.38
2023-05-05T02:56:00.824Z,101109.28
2023-05-05T02:58:36.125Z,101098.97
2023-05-05T03:01:21.426Z,101102.53
2023-05-05T03:04:01.776Z,101109.03
2023-05-05T03:06:33.719Z,101098.06
2023-05-05T03:09:11.264Z,101103.72
2023-05-05T03:11:48.157Z,101103.16
2023-05-05T03:14:21.561Z,101097.59
2023-05-05T03:16:53.523Z,101101.75
2023-05-05T03:19:25.081Z,101100.03
2023-05-05T03:21:54.204Z,101107.38
2023-05-05T03:24:23.529Z,101110.16
2023-05-05T03:26:53.513Z,101106.00
2023-05-05T03:29:22.299Z,101100.13
2023-05-05T03:31:51.184Z,101106.00
2023-05-05T03:34:20.178Z,101103.47
2023-05-05T03:36:55.660Z,101097.09
2023-05-05T03:39:24.153Z,101099.06
2023-05-05T03:41:54.562Z,101101.31
2023-05-05T03:44:23.714Z,101101.88
2023-05-05T03:46:52.826Z,101107.44
2023-05-05T03:49:21.569Z,101103.72
2023-05-05T03:51:51.563Z,101104.03
2023-05-05T03:54:20.574Z,101103.25
2023-05-05T03:56:49.295Z,101102.81
2023-05-05T03:59:20.344Z,101113.09
2023-05-05T04:01:50.286Z,101112.50
2023-05-05T04:04:19.318Z,101115.31
2023-05-05T04:06:47.812Z,101113.38
2023-05-05T04:09:18.811Z,101120.91
2023-05-05T04:11:47.283Z,101127.44
2023-05-05T04:14:15.871Z,101126.88
2023-05-05T04:16:44.749Z,101129.38
2023-05-05T04:19:14.005Z,101141.41
2023-05-05T04:21:44.147Z,101153.47
2023-05-05T04:24:12.908Z,101148.41
2023-05-05T04:26:42.791Z,101156.50
2023-05-05T04:29:11.625Z,101166.56
2023-05-05T04:31:40.653Z,101155.34
2023-05-05T04:34:10.625Z,101156.75
2023-05-05T04:36:39.280Z,101157.88
2023-05-05T04:39:08.404Z,101158.69
2023-05-05T04:41:37.447Z,101158.94
2023-05-05T04:44:08.442Z,101153.91
2023-05-05T04:46:40.431Z,101161.53
2023-05-05T04:49:09.397Z,101165.47
2023-05-05T04:51:42.042Z,101173.25
2023-05-05T04:54:11.179Z,101175.41
2023-05-05T04:56:40.730Z,101178.84
2023-05-05T04:59:10.985Z,101166.75
2023-05-05T05:01:39.982Z,101173.94
2023-05-05T05:04:10.593Z,101171.38
2023-05-05T05:06:40.653Z,101173.13
2023-05-05T05:09:12.707Z,101171.97
2023-05-05T05:11:42.809Z,101175.69
2023-05-05T05:14:12.783Z,101183.00
2023-05-05T05:16:42.093Z,101183.47
2023-05-05T05:19:12.009Z,101188.38
2023-05-05T05:21:40.806Z,101195.06
2023-05-05T05:24:11.282Z,101189.19
2023-05-05T05:26:40.448Z,101195.28
2023-05-05T05:29:09.255Z,101198.44
2023-05-05T05:31:40.856Z,101200.47
2023-05-05T05:34:12.613Z,101200.38
2023-05-05T05:36:41.888Z,101199.13
2023-05-05T05:39:10.889Z,101199.69
2023-05-05T05:41:40.022Z,101204.53
2023-05-05T05:44:09.874Z,101203.63
2023-05-05T05:46:40.715Z,101204.84
2023-05-05T05:49:09.738Z,101197.63
2023-05-05T05:51:38.433Z,101212.63
2023-05-05T05:54:07.277Z,101201.81
2023-05-05T05:56:36.896Z,101205.97
2023-05-05T05:59:08.463Z,101199.31
2023-05-05T06:01:37.378Z,101199.16
2023-05-05T06:04:08.111Z,101205.69
2023-05-05T06:06:38.667Z,101200.75
2023-05-05T06:09:07.749Z,101211.13
2023-05-05T06:11:37.273Z,101210.91
2023-05-05T06:14:08.236Z,101209.78
2023-05-05T06:16:36.925Z,101212.16
2023-05-05T06:19:09.853Z,101210.63
2023-05-05T06:21:38.851Z,101209.63
2023-05-05T06:24:08.762Z,101216.53
2023-05-05T06:26:37.455Z,101209.84
2023-05-05T06:29:07.421Z,101217.47
2023-05-05T06:31:36.299Z,101202.41
2023-05-05T06:34:06.550Z,101198.19
2023-05-05T06:36:35.317Z,101197.50
2023-05-05T06:39:14.580Z,101199.00
2023-05-05T06:41:44.692Z,101199.69
2023-05-05T06:44:14.518Z,101207.75
2023-05-05T06:46:45.144Z,101218.94
2023-05-05T06:49:15.300Z,101224.63
2023-05-05T06:51:43.963Z,101217.06
2023-05-05T06:54:12.667Z,101223.16
2023-05-05T06:56:41.854Z,101227.88
2023-05-05T06:59:10.879Z,101242.13
2023-05-05T07:01:39.332Z,101243.94
2023-05-05T07:04:08.388Z,101245.59
2023-05-05T07:06:38.764Z,101238.66
2023-05-05T07:09:07.380Z,101244.06
2023-05-05T07:11:36.576Z,101242.00
2023-05-05T07:14:05.049Z,101246.28
2023-05-05T07:16:37.251Z,101250.22
2023-05-05T07:19:07.706Z,101246.66
2023-05-05T07:21:39.978Z,101253.63
2023-05-05T07:24:09.392Z,101260.72
2023-05-05T07:26:37.986Z,101260.31
2023-05-05T07:29:07.299Z,101258.22
2023-05-05T07:31:37.579Z,101258.56
2023-05-05T07:34:06.362Z,101265.22
2023-05-05T07:36:36.378Z,101269.94
2023-05-05T07:39:06.789Z,101269.84
2023-05-05T07:41:35.947Z,101264.44
2023-05-05T07:44:04.697Z,101275.41
2023-05-05T07:46:35.383Z,101276.38
2023-05-05T07:49:04.280Z,101279.59
2023-05-05T07:51:34.958Z,101283.19
2023-05-05T07:54:09.531Z,101270.25
2023-05-05T07:56:38.470Z,101268.38
2023-05-05T07:59:07.272Z,101276.94
2023-05-05T08:01:35.962Z,101271.50
2023-05-05T08:04:04.676Z,101266.84
2023-05-05T08:06:33.702Z,101272.22
2023-05-05T08:09:06.166Z,101269.72
2023-05-05T08:11:40.730Z,101270.91
2023-05-05T08:14:11.429Z,101261.44
2023-05-05T08:16:40.169Z,101273.94
2023-05-05T08:19:28.562Z,101274.78
2023-05-05T08:22:00.012Z,101273.34
2023-05-05T08:24:29.917Z,101274.31
2023-05-05T08:27:01.142Z,101278.69
2023-05-05T08:29:31.270Z,101273.81
2023-05-05T08:32:00.885Z,101273.56
2023-05-05T08:34:29.685Z,101273.53
2023-05-05T08:36:58.544Z,101278.00
2023-05-05T08:39:27.618Z,101272.31
2023-05-05T08:41:56.025Z,101271.59
2023-05-05T08:44:26.997Z,101276.28
2023-05-05T08:46:57.791Z,101273.22
2023-05-05T08:49:28.927Z,101262.28
2023-05-05T08:52:00.968Z,101268.69
2023-05-05T08:54:35.758Z,101259.09
2023-05-05T08:57:09.494Z,101268.31
2023-05-05T08:59:42.898Z,101262.06
2023-05-05T09:02:13.254Z,101273.72
2023-05-05T09:04:49.378Z,101267.41
2023-05-05T09:07:18.753Z,101275.31
2023-05-05T09:09:48.441Z,101274.41
2023-05-05T09:12:18.810Z,101275.56
2023-05-05T09:14:49.407Z,101270.00
2023-05-05T09:17:25.755Z,101267.94
2023-05-05T09:20:05.746Z,101274.84
2023-05-05T09:22:39.379Z,101285.59
2023-05-05T09:25:10.462Z,101276.94
2023-05-05T09:27:41.563Z,101281.19
2023-05-05T09:30:16.794Z,101281.63
2023-05-05T09:32:47.668Z,101275.56
2023-05-05T09:35:18.060Z,101273.28
2023-05-05T09:37:47.889Z,101273.00
2023-05-05T09:40:22.061Z,101281.75
2023-05-05T09:43:01.519Z,101276.59
2023-05-05T09:45:33.655Z,101280.25
2023-05-05T09:48:02.561Z,101271.94
2023-05-05T09:50:32.787Z,101272.31
2023-05-05T09:53:04.314Z,101265.69
2023-05-05T09:55:33.659Z,101269.84
2023-05-05T09:58:21.531Z,101262.84
2023-05-05T10:00:52.375Z,101266.72
2023-05-05T10:03:25.180Z,101268.28
2023-05-05T10:05:57.035Z,101257.78
2023-05-05T10:08:28.752Z,101265.34
2023-05-05T10:11:00.985Z,101263.56
2023-05-05T10:13:30.418Z,101266.78
2023-05-05T10:16:03.545Z,101251.34
2023-05-05T10:18:33.880Z,101241.97
2023-05-05T10:21:04.250Z,101244.81
2023-05-05T10:23:41.769Z,101243.28
2023-05-05T10:26:14.702Z,101240.19
2023-05-05T10:28:49.665Z,101240.41
2023-05-05T10:31:38.491Z,101229.75
2023-05-05T10:34:11.985Z,101229.78
2023-05-05T10:36:43.447Z,101230.78
2023-05-05T10:39:12.808Z,101224.00
2023-05-05T10:41:41.505Z,101222.47
2023-05-05T10:44:11.884Z,101229.19
2023-05-05T10:46:42.754Z,101228.16
2023-05-05T10:49:24.479Z,101212.25
2023-05-05T10:52:05.641Z,101209.97
2023-05-05T10:54:40.825Z,101205.66
2023-05-05T10:57:14.873Z,101199.44
2023-05-05T10:59:45.520Z,101198.56
2023-05-05T11:02:27.521Z,101193.44
2023-05-05T11:05:11.046Z,101195.50
2023-05-05T11:07:42.002Z,101202.88
2023-05-05T11:10:13.030Z,101196.06
2023-05-05T11:13:21.176Z,101197.03
2023-05-05T11:15:52.678Z,101191.97
2023-05-05T11:18:37.440Z,101183.25
2023-05-05T11:21:18.211Z,101182.47
2023-05-05T11:23:50.052Z,101183.56
2023-05-05T11:26:51.811Z,101187.72
2023-05-05T11:29:20.619Z,101185.75
2023-05-05T11:32:13.981Z,101185.25
2023-05-05T11:34:51.942Z,101181.38
2023-05-05T11:37:25.226Z,101185.81
2023-05-05T11:40:05.117Z,101185.28
2023-05-05T11:42:34.139Z,101194.97
2023-05-05T11:45:20.540Z,101192.28
2023-05-05T11:47:49.628Z,101195.47
2023-05-05T11:50:23.537Z,101197.75
2023-05-05T11:52:52.429Z,101206.00
2023-05-05T11:55:23.399Z,101225.94
2023-05-05T11:57:53.429Z,101220.28
2023-05-05T12:00:34.452Z,101213.25
2023-05-05T12:03:05.956Z,101223.91
2023-05-05T12:05:37.086Z,101216.66
2023-05-05T12:08:06.600Z,101225.88
2023-05-05T12:10:35.108Z,101227.50
2023-05-05T12:13:03.851Z,101230.44
2023-05-05T12:15:34.242Z,101224.50
2023-05-05T12:18:03.643Z,101225.81
2023-05-05T12:20:36.742Z,101228.56
2023-05-05T12:23:06.205Z,101210.38
2023-05-05T12:25:40.314Z,101224.56
2023-05-05T12:28:10.889Z,101223.88
2023-05-05T12:30:39.466Z,101214.63
2023-05-05T12:33:10.020Z,101218.31
2023-05-05T12:35:41.567Z,101210.94
2023-05-05T12:38:18.569Z,101215.25
2023-05-05T12:40:50.047Z,101214.81
2023-05-05T12:43:31.515Z,101201.09
2023-05-05T12:46:09.811Z,101203.28
2023-05-05T12:48:40.017Z,101199.84
2023-05-05T12:51:18.885Z,101200.97
2023-05-05T12:53:50.252Z,101206.75
2023-05-05T12:56:34.274Z,101211.03
2023-05-05T12:59:03.977Z,101198.25
2023-05-05T13:01:32.785Z,101204.16
2023-05-05T13:04:15.387Z,101199.81
2023-05-05T13:06:47.086Z,101197.41
2023-05-05T13:09:25.937Z,101189.28
2023-05-05T13:11:54.886Z,101190.84
2023-05-05T13:14:24.497Z,101186.88
2023-05-05T13:16:54.293Z,101187.47
2023-05-05T13:19:25.017Z,101189.56
2023-05-05T13:21:55.564Z,101192.78
2023-05-05T13:24:38.068Z,101193.28
2023-05-05T13:27:12.636Z,101192.41
2023-05-05T13:29:41.807Z,101187.75
2023-05-05T13:32:10.280Z,101183.56
2023-05-05T13:34:39.676Z,101188.31
2023-05-05T13:37:09.854Z,101182.56
2023-05-05T13:39:39.361Z,101176.91
2023-05-05T13:42:08.080Z,101175.06
2023-05-05T13:44:37.009Z,101171.31
2023-05-05T13:47:07.917Z,101174.38
2023-05-05T13:49:36.999Z,101165.59
2023-05-05T13:52:06.079Z,101161.22
2023-05-05T13:57:37.558Z,101157.19
2023-05-05T14:00:13.971Z,101151.31
2023-05-05T14:02:43.170Z,101161.34
2023-05-05T14:05:16.478Z,101159.31
2023-05-05T14:07:45.908Z,101162.25
2023-05-05T14:10:17.562Z,101153.22
2023-05-05T14:12:46.731Z,101163.03
2023-05-05T14:15:16.072Z,101166.00
2023-05-05T14:17:44.790Z,101168.56
2023-05-05T14:20:16.027Z,101159.31
2023-05-05T14:22:46.253Z,101171.19
2023-05-05T14:25:17.914Z,101174.00
2023-05-05T14:27:48.937Z,101175.22
2023-05-05T14:30:19.995Z,101175.38
2023-05-05T14:32:49.435Z,101191.91
2023-05-05T14:35:20.914Z,101196.13
2023-05-05T14:37:50.206Z,101182.81
2023-05-05T14:40:23.213Z,101197.88
2023-05-05T14:42:52.036Z,101202.59
2023-05-05T14:45:21.519Z,101213.53
2023-05-05T14:47:53.731Z,101222.59
2023-05-05T14:50:23.966Z,101206.94
2023-05-05T14:52:59.137Z,101225.16
2023-05-05T14:55:32.221Z,101218.78
2023-05-05T14:58:01.210Z,101234.69
2023-05-05T15:00:29.825Z,101234.31
2023-05-05T15:02:59.899Z,101234.66
2023-05-05T15:05:31.337Z,101228.19
2023-05-05T15:08:01.488Z,101226.50
2023-05-05T15:10:43.941Z,101232.19
2023-05-05T15:13:13.576Z,101236.31
2023-05-05T15:15:42.809Z,101239.41
2023-05-05T15:18:11.813Z,101239.00
2023-05-05T15:20:41.325Z,101246.56
2023-05-05T15:23:12.985Z,101247.97
2023-05-05T15:25:44.924Z,101252.97
2023-05-05T15:28:18.964Z,101250.59
2023-05-05T15:31:07.493Z,101253.72
2023-05-05T15:33:35.922Z,101252.13
2023-05-05T15:36:04.386Z,101254.00
2023-05-05T15:38:32.586Z,101257.16
2023-05-05T15:41:02.164Z,101264.44
2023-05-05T15:43:30.512Z,101280.16
2023-05-05T15:45:58.802Z,101272.88
2023-05-05T15:48:26.990Z,101264.00
2023-05-05T15:50:55.255Z,101278.22
2023-05-05T15:53:23.504Z,101271.72
2023-05-05T15:55:51.803Z,101287.50
2023-05-05T15:58:21.353Z,101272.31
2023-05-05T16:00:49.664Z,101268.78
2023-05-05T16:03:18.147Z,101260.28
2023-05-05T16:05:47.180Z,101257.19
2023-05-05T16:08:15.441Z,101251.59
2023-05-05T16:10:43.676Z,101248.16
2023-05-05T16:13:11.935Z,101255.47
2023-05-05T16:15:41.562Z,101245.09
2023-05-05T16:18:09.809Z,101256.69
2023-05-05T16:20:38.048Z,101246.47
2023-05-05T16:23:06.862Z,101245.91
2023-05-05T16:25:35.100Z,101239.88
2023-05-05T16:28:03.323Z,101228.16
2023-05-05T16:30:31.678Z,101228.34
2023-05-05T16:33:01.338Z,101235.69
2023-05-05T16:35:29.594Z,101233.00
2023-05-05T16:37:57.832Z,101234.16
2023-05-05T16:40:26.092Z,101223.97
2023-05-05T16:42:54.324Z,101232.38
2023-05-05T16:45:22.604Z,101229.69
2023-05-05T16:47:51.177Z,101226.16
2023-05-05T16:50:21.063Z,101237.00
2023-05-05T16:52:49.458Z,101240.63
2023-05-05T16:55:17.957Z,101236.91
2023-05-05T16:57:47.216Z,101240.63
2023-05-05T17:00:16.408Z,101231.97
2023-05-05T17:02:44.658Z,101222.22
2023-05-05T17:05:12.965Z,101230.63
2023-05-05T17:07:42.774Z,101223.13
2023-05-05T17:10:11.954Z,101225.84
2023-05-05T17:12:40.180Z,101231.22
2023-05-05T17:15:09.974Z,101237.66
2023-05-05T17:17:38.782Z,101245.88
2023-05-05T17:20:09.684Z,101250.19
2023-05-05T17:22:38.077Z,101252.19
2023-05-05T17:25:09.074Z,101249.03
2023-05-05T17:27:37.503Z,101247.75
2023-05-05T17:30:07.281Z,101247.13
2023-05-05T17:32:35.656Z,101230.22
2023-05-05T17:35:04.076Z,101244.50
2023-05-05T17:37:32.392Z,101244.50
2023-05-05T17:40:00.684Z,101252.88
2023-05-05T17:42:33.075Z,101258.16
2023-05-05T17:45:01.486Z,101259.78
2023-05-05T17:47:30.072Z,101261.19
2023-05-05T17:49:58.938Z,101263.16
2023-05-05T17:52:27.409Z,101258.97
2023-05-05T17:54:55.714Z,101258.88
2023-05-05T17:57:23.962Z,101260.03
2023-05-05T17:59:53.772Z,101261.50
2023-05-05T18:02:22.177Z,101253.19
2023-05-05T18:04:50.462Z,101254.16
2023-05-05T18:07:18.693Z,101253.63
2023-05-05T18:09:46.936Z,101264.88
2023-05-05T18:12:15.154Z,101257.94
2023-05-05T18:14:43.353Z,101265.78
2023-05-05T18:17:13.012Z,101263.53
2023-05-05T18:19:46.164Z,101261.25
2023-05-05T18:22:16.018Z,101259.59
2023-05-05T18:24:44.328Z,101261.69
2023-05-05T18:27:12.886Z,101267.03
2023-05-05T18:29:41.189Z,101270.56
2023-05-05T18:32:09.416Z,101264.94
2023-05-05T18:34:39.014Z,101262.13
2023-05-05T18:37:07.284Z,101267.41
2023-05-05T18:39:35.696Z,101257.78
2023-05-05T18:42:04.203Z,101263.41
2023-05-05T18:44:34.800Z,101261.09
2023-05-05T18:47:03.182Z,101262.25
2023-05-05T18:49:31.829Z,101259.25
2023-05-05T18:52:01.432Z,101251.78
2023-05-05T18:54:29.731Z,101263.31
2023-05-05T18:56:59.389Z,101265.00
2023-05-05T18:59:27.739Z,101259.59
2023-05-05T19:01:55.997Z,101267.75
2023-05-05T19:04:31.450Z,101265.94
2023-05-05T19:07:01.534Z,101264.81
2023-05-05T19:09:29.794Z,101255.81
2023-05-05T19:11:58.162Z,101263.44
2023-05-05T19:14:26.734Z,101266.25
2023-05-05T19:16:56.273Z,101269.31
2023-05-05T19:19:24.681Z,101263.75
2023-05-05T19:21:52.899Z,101264.59
2023-05-05T19:24:22.486Z,101276.88
2023-05-05T19:26:50.768Z,101281.38
2023-05-05T19:29:19.090Z,101278.88
2023-05-05T19:31:47.369Z,101283.63
2023-05-05T19:34:15.739Z,101294.28
2023-05-05T19:36:43.986Z,101294.03
2023-05-05T19:39:13.696Z,101294.84
2023-05-05T19:41:44.900Z,101304.97
2023-05-05T19:44:13.184Z,101290.91
2023-05-05T19:46:41.440Z,101300.19
2023-05-05T19:49:09.780Z,101303.00
2023-05-05T19:51:37.984Z,101298.47
2023-05-05T19:54:06.489Z,101299.84
2023-05-05T19:56:34.701Z,101301.81
2023-05-05T19:59:06.282Z,101304.94
2023-05-05T20:01:34.916Z,101306.91
2023-05-05T20:04:04.354Z,101301.03
2023-05-05T20:06:33.052Z,101306.66
2023-05-05T20:09:02.053Z,101304.13
2023-05-05T20:11:30.403Z,101301.63
2023-05-05T20:13:59.334Z,101293.78
2023-05-05T20:16:28.986Z,101295.75
2023-05-05T20:18:57.432Z,101295.75
2023-05-05T20:21:26.768Z,101294.63
2023-05-05T20:23:55.523Z,101297.72
2023-05-05T20:26:24.451Z,101294.34
2023-05-05T20:28:52.834Z,101290.44
2023-05-05T20:31:21.274Z,101292.97
2023-05-05T20:33:50.965Z,101292.69
2023-05-05T20:36:19.616Z,101290.75
2023-05-05T20:38:47.826Z,101297.19
2023-05-05T20:41:16.208Z,101285.97
2023-05-05T20:43:44.629Z,101285.44
2023-05-05T20:46:13.390Z,101299.16
2023-05-05T20:48:42.955Z,101289.34
2023-05-05T20:51:12.735Z,101279.28
2023-05-05T20:53:41.237Z,101283.47
2023-05-05T20:56:09.472Z,101280.97
2023-05-05T20:58:37.711Z,101288.25
2023-05-05T21:01:06.209Z,101277.88
2023-05-05T21:03:34.552Z,101281.25
2023-05-05T21:06:03.485Z,101281.25
2023-05-05T21:08:33.080Z,101282.97
2023-05-05T21:11:01.595Z,101284.63
2023-05-05T21:13:30.548Z,101286.88
2023-05-05T21:15:58.803Z,101293.88
2023-05-05T21:18:27.703Z,101298.91
2023-05-05T21:20:56.279Z,101296.38
2023-05-05T21:23:24.518Z,101292.19
2023-05-05T21:25:54.144Z,101295.56
2023-05-05T21:28:22.401Z,101289.69
2023-05-05T21:31:10.396Z,101296.69
2023-05-05T21:33:39.696Z,101291.09
2023-05-05T21:36:08.213Z,101295.84
2023-05-05T21:38:36.494Z,101296.41
2023-05-05T21:41:06.383Z,101292.78
2023-05-05T21:43:34.615Z,101291.94
2023-05-05T21:46:04.579Z,101288.28
2023-05-05T21:48:33.137Z,101291.94
2023-05-05T21:51:01.381Z,101298.34
2023-05-05T21:53:29.591Z,101299.22
2023-05-05T21:55:57.857Z,101303.16
2023-05-05T21:58:27.617Z,101300.59
2023-05-05T22:00:55.920Z,101289.41
2023-05-05T22:03:24.326Z,101296.69
2023-05-05T22:05:52.892Z,101296.13
2023-05-05T22:10:56.684Z,101287.16
2023-05-05T22:13:26.379Z,101291.09
2023-05-05T22:15:54.749Z,101289.41
2023-05-05T22:18:23.105Z,101296.94
2023-05-05T22:20:52.633Z,101294.72
2023-05-05T22:23:21.007Z,101289.13
2023-05-05T22:25:49.275Z,101291.06
2023-05-05T22:28:17.628Z,101300.03
2023-05-05T22:30:47.221Z,101299.44
2023-05-05T22:33:15.520Z,101296.91
2023-05-05T22:35:43.955Z,101299.72
2023-05-05T22:38:12.238Z,101300.59
2023-05-05T22:40:40.617Z,101300.59
2023-05-05T22:43:08.907Z,101303.06
2023-05-05T22:45:37.212Z,101303.41
2023-05-05T22:48:07.620Z,101300.59
2023-05-05T22:50:36.781Z,101301.41
2023-05-05T22:53:05.087Z,101303.91
2023-05-05T22:55:33.327Z,101293.00
2023-05-05T22:58:01.643Z,101294.38
2023-05-05T23:00:30.252Z,101296.34
2023-05-05T23:02:58.726Z,101289.63
2023-05-05T23:05:28.598Z,101293.28
2023-05-05T23:07:59.916Z,101289.06
2023-05-05T23:10:28.713Z,101287.69
2023-05-05T23:12:56.962Z,101290.19
2023-05-05T23:15:25.268Z,101284.88
2023-05-05T23:17:53.541Z,101290.19
2023-05-05T23:20:22.071Z,101289.06
2023-05-05T23:22:51.661Z,101284.59
2023-05-05T23:25:20.369Z,101296.63
2023-05-05T23:27:48.915Z,101290.75
2023-05-05T23:30:17.571Z,101294.09
2023-05-05T23:32:46.082Z,101298.28
2023-05-05T23:35:14.547Z,101286.81
2023-05-05T23:37:42.829Z,101291.59
2023-05-05T23:40:12.853Z,101297.16
2023-05-05T23:42:41.117Z,101301.91
2023-05-05T23:45:11.345Z,101298.84
2023-05-05T23:47:40.032Z,101301.63
2023-05-05T23:50:10.321Z,101303.56
2023-05-05T23:52:38.584Z,101304.66
2023-05-05T23:55:08.662Z,101298.25
2023-05-05T23:57:38.703Z,101291.19
